This is the latest recevied weather packets stored in our database for station/object W2CJS. If no packets are shown the sender has not sent any weather packets the latest 10 day(s).
| Time | Temp. | Humidity | Pressure | Rain* | Wind** | Luminosity | Snow |
|---|---|---|---|---|---|---|---|
| 1777719624 | 2.78° C | 93% | 1010.4 hPa | 0 mm | - | - | - |
| 1777718403 | 2.78° C | 93% | 1010.1 hPa | 0 mm | - | - | - |
| 1777713003 | 2.22° C | 92% | 1009.7 hPa | 0.25 mm | - | - | - |
| 1777711803 | 2.22° C | 92% | 1009.4 hPa | 0.25 mm | - | - | - |
| 1777711204 | 2.22° C | 92% | 1009.3 hPa | 0.25 mm | - | - | - |
| 1777704604 | 2.78° C | 91% | 1009.7 hPa | 0.76 mm | - | - | - |
| 1777703404 | 2.78° C | 91% | 1009.8 hPa | 0.76 mm | - | - | - |
| 1777701003 | 3.33° C | 90% | 1010 hPa | 1.02 mm | - | - | - |
| 1777699225 | 3.89° C | 90% | 1009.9 hPa | 0.76 mm | - | - | - |
| 1777698003 | 3.89° C | 89% | 1010 hPa | 0.51 mm | - | - | - |
| 1777696803 | 3.89° C | 90% | 1010 hPa | 0.25 mm | - | - | - |
| 1777696203 | 3.89° C | 90% | 1010 hPa | 0.25 mm | - | - | - |
| 1777693824 | 4.44° C | 87% | 1010.1 hPa | 0 mm | - | - | - |
| 1777686604 | 6.11° C | 70% | 1010.3 hPa | 0 mm | - | - | - |
| 1777685403 | 6.11° C | 68% | 1010.3 hPa | 0 mm | - | - | - |
| 1777684203 | 6.67° C | 64% | 1010.2 hPa | 0 mm | - | - | - |
| 1777681225 | 7.78° C | 55% | 1010.1 hPa | 0 mm | - | - | - |
| 1777677024 | 8.33° C | 53% | 1009 hPa | 0 mm | - | - | - |
| 1777675803 | 8.89° C | 53% | 1008.7 hPa | 0 mm | - | - | - |
| 1777674005 | 8.89° C | 46% | 1008.8 hPa | 0 mm | - | - | - |
| 1777669204 | 10° C | 42% | 1008.7 hPa | 0 mm | - | - | - |
| 1777660203 | 9.44° C | 46% | 1009.3 hPa | 0 mm | - | - | - |
| 1777659603 | 8.89° C | 48% | 1009.4 hPa | 0 mm | - | - | - |
| 1777658403 | 8.89° C | 46% | 1009.5 hPa | 0 mm | - | - | - |
| 1777657803 | 9.44° C | 48% | 1009.5 hPa | 0 mm | - | - | - |
* Rain latest hour (hover to see other rain measurements)
** Current wind speed in m/s (hover to see current wind gust speed)